createdAt,value
2024-05-09T00:00:39.146Z,81.76
2024-05-09T00:01:49.270Z,81.57
2024-05-09T00:02:37.094Z,81.82
2024-05-09T00:03:25.974Z,81.82
2024-05-09T00:04:14.630Z,81.77
2024-05-09T00:05:12.106Z,81.73
2024-05-09T00:06:12.520Z,81.92
2024-05-09T00:07:02.902Z,81.80
2024-05-09T00:07:57.732Z,82.06
2024-05-09T00:08:58.509Z,81.87
2024-05-09T00:09:52.400Z,81.75
2024-05-09T00:10:51.134Z,81.93
2024-05-09T00:11:45.060Z,81.91
2024-05-09T00:12:44.428Z,82.02
2024-05-09T00:13:34.609Z,81.92
2024-05-09T00:14:22.909Z,82.03
2024-05-09T00:15:24.748Z,81.97
2024-05-09T00:16:22.837Z,81.70
2024-05-09T00:17:17.525Z,81.68
2024-05-09T00:18:08.319Z,81.66
2024-05-09T00:19:01.655Z,81.57
2024-05-09T00:19:57.501Z,81.70
2024-05-09T00:20:47.793Z,81.61
2024-05-09T00:21:49.691Z,81.47
2024-05-09T00:22:39.356Z,81.42
2024-05-09T00:23:32.116Z,81.46
2024-05-09T00:24:26.148Z,81.64
2024-05-09T00:25:17.113Z,81.58
2024-05-09T00:26:13.631Z,81.73
2024-05-09T00:27:06.647Z,81.77
2024-05-09T00:28:01.540Z,81.96
2024-05-09T00:28:55.454Z,82.06
2024-05-09T00:29:50.549Z,82.27
2024-05-09T00:30:42.190Z,82.20
2024-05-09T00:31:38.365Z,82.20
2024-05-09T00:32:34.570Z,82.36
2024-05-09T00:33:35.337Z,82.38
2024-05-09T00:34:31.905Z,82.35
2024-05-09T00:35:27.945Z,82.26
2024-05-09T00:36:19.200Z,82.67
2024-05-09T00:37:09.376Z,82.43
2024-05-09T00:38:02.793Z,82.71
2024-05-09T00:38:56.003Z,82.74
2024-05-09T00:39:52.707Z,82.81
2024-05-09T00:40:48.459Z,82.89
2024-05-09T00:41:41.934Z,83.19
2024-05-09T00:42:31.744Z,83.01
2024-05-09T00:43:20.791Z,83.15
2024-05-09T00:44:34.530Z,83.12
2024-05-09T00:45:25.147Z,83.14
2024-05-09T00:46:15.386Z,83.03
2024-05-09T00:47:08.965Z,83.42
2024-05-09T00:48:10.184Z,83.05
2024-05-09T00:49:02.723Z,83.08
2024-05-09T00:50:04.181Z,83.09
2024-05-09T00:51:03.985Z,83.04
2024-05-09T00:52:02.935Z,83.10
2024-05-09T00:52:55.208Z,82.97
2024-05-09T00:53:52.514Z,83.19
2024-05-09T00:54:43.439Z,83.45
2024-05-09T00:55:40.388Z,83.27
2024-05-09T00:56:34.665Z,83.46
2024-05-09T00:57:33.878Z,83.38
2024-05-09T00:58:33.396Z,83.20
2024-05-09T00:59:31.309Z,83.22
2024-05-09T01:00:38.805Z,83.31
2024-05-09T01:01:38.698Z,83.23
2024-05-09T01:02:31.730Z,83.19
2024-05-09T01:03:21.869Z,83.53
2024-05-09T01:04:20.163Z,83.59
2024-05-09T01:05:09.254Z,83.30
2024-05-09T01:05:57.977Z,83.60
2024-05-09T01:06:56.028Z,83.53
2024-05-09T01:07:54.292Z,83.47
2024-05-09T01:08:53.750Z,83.58
2024-05-09T01:09:50.682Z,83.62
2024-05-09T01:10:55.631Z,83.52
2024-05-09T01:11:50.693Z,83.43
2024-05-09T01:12:49.607Z,83.55
2024-05-09T01:13:39.885Z,83.52
2024-05-09T01:14:37.039Z,83.63
2024-05-09T01:15:29.125Z,83.89
2024-05-09T01:16:23.175Z,83.64
2024-05-09T01:17:17.448Z,83.76
2024-05-09T01:18:13.694Z,83.90
2024-05-09T01:19:11.784Z,83.79
2024-05-09T01:20:12.938Z,84.05
2024-05-09T01:21:17.879Z,83.94
2024-05-09T01:22:18.389Z,84.19
2024-05-09T01:23:11.880Z,84.50
2024-05-09T01:24:07.253Z,84.14
2024-05-09T01:25:07.938Z,84.21
2024-05-09T01:26:07.780Z,84.23
2024-05-09T01:27:03.041Z,84.02
2024-05-09T01:27:57.103Z,84.61
2024-05-09T01:28:48.250Z,84.23
2024-05-09T01:29:38.143Z,84.25
2024-05-09T01:30:41.996Z,84.14
2024-05-09T01:31:37.088Z,84.08
2024-05-09T01:32:28.840Z,84.10
2024-05-09T01:33:17.688Z,84.04
2024-05-09T01:34:09.160Z,84.07
2024-05-09T01:35:01.010Z,83.88
2024-05-09T01:35:53.912Z,84.14
2024-05-09T01:36:52.734Z,83.99
2024-05-09T01:37:46.323Z,84.03
2024-05-09T01:38:36.372Z,84.23
2024-05-09T01:39:32.699Z,84.25
2024-05-09T01:40:37.214Z,84.18
2024-05-09T01:41:32.026Z,84.61
2024-05-09T01:42:24.756Z,84.46
2024-05-09T01:43:14.019Z,84.45
2024-05-09T01:44:04.325Z,84.44
2024-05-09T01:45:40.060Z,84.39
2024-05-09T01:46:28.885Z,84.24
2024-05-09T01:47:16.849Z,84.24
2024-05-09T01:48:05.585Z,84.16
2024-05-09T01:48:53.551Z,84.27
2024-05-09T01:49:41.821Z,84.15
2024-05-09T01:50:38.536Z,84.16
2024-05-09T01:51:29.188Z,84.19
2024-05-09T01:52:17.133Z,84.11
2024-05-09T01:53:05.324Z,84.02
2024-05-09T01:53:56.191Z,83.84
2024-05-09T01:54:46.871Z,83.84
2024-05-09T01:55:36.514Z,83.66
2024-05-09T01:56:24.567Z,83.41
2024-05-09T01:57:12.375Z,83.28
2024-05-09T01:58:00.318Z,83.22
2024-05-09T01:58:48.048Z,83.10
2024-05-09T01:59:35.870Z,83.10
2024-05-09T02:00:36.380Z,82.89
2024-05-09T02:01:28.020Z,82.58
2024-05-09T02:02:17.264Z,82.46
2024-05-09T02:03:08.609Z,81.94
2024-05-09T02:03:56.834Z,81.56
2024-05-09T02:04:47.423Z,81.25
2024-05-09T02:05:35.367Z,81.24
2024-05-09T02:06:23.130Z,81.19
2024-05-09T02:07:11.316Z,81.34
2024-05-09T02:07:59.328Z,81.27
2024-05-09T02:08:47.083Z,81.69
2024-05-09T02:09:34.884Z,81.72
2024-05-09T02:10:26.624Z,81.85
2024-05-09T02:11:20.199Z,82.19
2024-05-09T02:12:07.999Z,82.03
2024-05-09T02:12:56.595Z,82.03
2024-05-09T02:13:44.242Z,82.01
2024-05-09T02:14:31.993Z,82.08
2024-05-09T02:15:19.844Z,82.02
2024-05-09T02:16:14.034Z,81.95
2024-05-09T02:17:01.889Z,81.88
2024-05-09T02:17:49.979Z,81.82
2024-05-09T02:18:38.838Z,81.53
2024-05-09T02:19:26.981Z,81.47
2024-05-09T02:20:22.563Z,81.48
2024-05-09T02:21:15.335Z,81.68
2024-05-09T02:22:03.651Z,81.36
2024-05-09T02:22:51.681Z,81.09
2024-05-09T02:23:39.563Z,81.10
2024-05-09T02:24:27.423Z,81.34
2024-05-09T02:25:15.310Z,81.28
2024-05-09T02:26:03.180Z,81.25
2024-05-09T02:26:51.185Z,81.56
2024-05-09T02:27:39.000Z,81.55
2024-05-09T02:28:26.712Z,81.56
2024-05-09T02:29:14.459Z,81.28
2024-05-09T02:30:02.291Z,81.20
2024-05-09T02:30:49.996Z,81.48
2024-05-09T02:31:37.886Z,81.57
2024-05-09T02:32:25.731Z,81.72
2024-05-09T02:33:14.551Z,81.69
2024-05-09T02:34:03.020Z,81.75
2024-05-09T02:34:51.196Z,81.78
2024-05-09T02:35:40.312Z,81.58
2024-05-09T02:36:28.372Z,81.78
2024-05-09T02:37:16.219Z,82.22
2024-05-09T02:38:04.357Z,82.13
2024-05-09T02:38:52.144Z,82.27
2024-05-09T02:39:39.883Z,82.48
2024-05-09T02:40:36.105Z,82.54
2024-05-09T02:41:26.920Z,82.45
2024-05-09T02:42:14.824Z,82.59
2024-05-09T02:43:02.545Z,82.49
2024-05-09T02:43:50.283Z,82.64
2024-05-09T02:44:38.358Z,82.77
2024-05-09T02:45:26.116Z,82.60
2024-05-09T02:46:16.411Z,82.87
2024-05-09T02:47:04.850Z,82.57
2024-05-09T02:47:52.928Z,82.72
2024-05-09T02:48:41.052Z,82.38
2024-05-09T02:49:29.043Z,82.33
2024-05-09T02:50:25.980Z,82.40
2024-05-09T02:51:18.018Z,82.42
2024-05-09T02:52:05.798Z,82.31
2024-05-09T02:52:53.700Z,82.24
2024-05-09T02:53:41.596Z,82.21
2024-05-09T02:54:30.484Z,82.06
2024-05-09T02:55:18.289Z,82.03
2024-05-09T02:56:06.304Z,81.90
2024-05-09T02:56:54.262Z,82.09
2024-05-09T02:57:43.245Z,82.11
2024-05-09T02:58:33.943Z,82.14
2024-05-09T02:59:26.084Z,82.09
2024-05-09T03:00:26.263Z,82.07
2024-05-09T03:01:33.052Z,82.34
2024-05-09T03:02:29.972Z,82.04
2024-05-09T03:03:20.802Z,82.07
2024-05-09T03:04:11.058Z,82.34
2024-05-09T03:05:09.680Z,82.22
2024-05-09T03:06:30.333Z,82.55
2024-05-09T03:07:20.235Z,82.35
2024-05-09T03:08:08.436Z,82.50
2024-05-09T03:08:56.276Z,82.77
2024-05-09T03:09:47.194Z,82.77
2024-05-09T03:10:37.238Z,82.55
2024-05-09T03:11:26.672Z,82.59
2024-05-09T03:12:14.703Z,82.09
2024-05-09T03:13:11.397Z,82.03
2024-05-09T03:13:59.318Z,81.84
2024-05-09T03:14:50.148Z,81.85
2024-05-09T03:15:37.887Z,82.30
2024-05-09T03:16:25.682Z,82.49
2024-05-09T03:17:15.062Z,83.02
2024-05-09T03:18:04.723Z,83.00
2024-05-09T03:18:54.472Z,82.98
2024-05-09T03:19:42.723Z,82.94
2024-05-09T03:20:34.527Z,82.70
2024-05-09T03:21:23.710Z,82.51
2024-05-09T03:22:12.451Z,82.33
2024-05-09T03:23:01.277Z,82.35
2024-05-09T03:23:49.114Z,82.44
2024-05-09T03:24:37.139Z,82.65
2024-05-09T03:25:25.091Z,82.64
2024-05-09T03:26:17.220Z,82.63
2024-05-09T03:27:05.290Z,82.69
2024-05-09T03:27:54.382Z,82.71
2024-05-09T03:28:45.823Z,82.60
2024-05-09T03:29:34.267Z,82.23
2024-05-09T03:30:30.991Z,82.34
2024-05-09T03:31:27.334Z,82.11
2024-05-09T03:32:15.267Z,82.09
2024-05-09T03:33:03.331Z,82.52
2024-05-09T03:33:52.594Z,82.35
2024-05-09T03:34:40.591Z,82.32
2024-05-09T03:35:29.117Z,82.51
2024-05-09T03:36:16.910Z,82.79
2024-05-09T03:37:04.746Z,82.58
2024-05-09T03:37:52.530Z,82.74
2024-05-09T03:38:40.418Z,82.55
2024-05-09T03:39:28.272Z,82.77
2024-05-09T03:41:05.531Z,82.60
2024-05-09T03:41:53.725Z,82.77
2024-05-09T03:42:44.292Z,82.59
2024-05-09T03:43:32.035Z,82.49
2024-05-09T03:44:19.862Z,82.31
2024-05-09T03:45:07.868Z,82.13
2024-05-09T03:45:55.780Z,82.36
2024-05-09T03:46:43.764Z,82.63
2024-05-09T03:47:35.206Z,82.59
2024-05-09T03:48:23.477Z,82.48
2024-05-09T03:49:11.910Z,82.51
2024-05-09T03:49:59.707Z,82.83
2024-05-09T03:50:47.721Z,82.71
2024-05-09T03:51:35.584Z,82.68
2024-05-09T03:52:23.264Z,82.51
2024-05-09T03:53:14.446Z,82.99
2024-05-09T03:54:02.307Z,82.54
2024-05-09T03:54:50.525Z,82.40
2024-05-09T03:55:38.758Z,82.33
2024-05-09T03:56:26.657Z,82.26
2024-05-09T03:57:14.347Z,82.47
2024-05-09T03:58:02.063Z,82.63
2024-05-09T03:58:51.936Z,82.52
2024-05-09T03:59:39.738Z,82.76
2024-05-09T04:00:35.634Z,83.07
2024-05-09T04:01:26.438Z,83.11
2024-05-09T04:02:14.203Z,83.11
2024-05-09T04:03:02.593Z,82.96
2024-05-09T04:03:51.247Z,83.21
2024-05-09T04:04:41.770Z,83.15
2024-05-09T04:05:30.568Z,83.16
2024-05-09T04:06:26.631Z,83.08
2024-05-09T04:07:14.469Z,83.18
2024-05-09T04:08:02.460Z,83.33
2024-05-09T04:08:50.742Z,83.21
2024-05-09T04:09:38.749Z,83.64
2024-05-09T04:10:32.813Z,83.61
2024-05-09T04:11:22.371Z,83.50
2024-05-09T04:12:10.355Z,83.62
2024-05-09T04:12:58.058Z,83.87
2024-05-09T04:13:45.802Z,83.69
2024-05-09T04:14:33.840Z,82.99
2024-05-09T04:15:22.677Z,83.24
2024-05-09T04:16:12.701Z,82.98
2024-05-09T04:17:00.676Z,83.16
2024-05-09T04:17:51.262Z,82.79
2024-05-09T04:18:39.868Z,82.73
2024-05-09T04:19:27.828Z,82.56
2024-05-09T04:20:24.780Z,82.70
2024-05-09T04:21:21.707Z,83.11
2024-05-09T04:22:09.861Z,83.16
2024-05-09T04:22:57.824Z,83.10
2024-05-09T04:23:45.667Z,82.87
2024-05-09T04:24:33.397Z,82.56
2024-05-09T04:25:21.230Z,82.71
2024-05-09T04:26:09.200Z,83.18
2024-05-09T04:26:56.901Z,82.83
2024-05-09T04:27:44.593Z,83.40
2024-05-09T04:28:32.542Z,83.43
2024-05-09T04:29:20.340Z,83.29
2024-05-09T04:30:15.252Z,83.31
2024-05-09T04:31:06.733Z,83.09
2024-05-09T04:31:55.012Z,83.27
2024-05-09T04:32:43.491Z,83.53
2024-05-09T04:33:31.548Z,83.41
2024-05-09T04:34:19.433Z,83.32
2024-05-09T04:35:07.270Z,83.25
2024-05-09T04:35:55.141Z,83.44
2024-05-09T04:36:44.465Z,83.09
2024-05-09T04:37:32.405Z,83.52
2024-05-09T04:38:20.221Z,83.34
2024-05-09T04:39:07.843Z,83.30
2024-05-09T04:39:55.641Z,83.08
2024-05-09T04:40:43.440Z,82.83
2024-05-09T04:41:31.231Z,83.18
2024-05-09T04:42:19.111Z,82.92
2024-05-09T04:43:14.218Z,82.83
2024-05-09T04:44:02.315Z,82.34
2024-05-09T04:44:50.069Z,81.93
2024-05-09T04:45:37.742Z,82.18
2024-05-09T04:46:25.386Z,82.33
2024-05-09T04:47:13.257Z,82.32
2024-05-09T04:48:01.808Z,82.33
2024-05-09T04:48:50.370Z,82.25
2024-05-09T04:49:38.319Z,82.25
2024-05-09T04:50:35.190Z,82.10
2024-05-09T04:51:26.322Z,82.30
2024-05-09T04:52:13.962Z,82.40
2024-05-09T04:53:03.059Z,82.17
2024-05-09T04:53:59.504Z,82.50
2024-05-09T04:54:54.791Z,82.43
2024-05-09T04:55:51.684Z,82.75
2024-05-09T04:56:45.927Z,82.54
2024-05-09T04:57:46.710Z,83.06
2024-05-09T04:58:42.468Z,83.21
2024-05-09T04:59:36.206Z,83.11
2024-05-09T05:00:36.798Z,83.29
2024-05-09T05:01:34.727Z,83.31
2024-05-09T05:02:27.522Z,83.20
2024-05-09T05:03:22.131Z,83.57
2024-05-09T05:04:14.355Z,83.65
2024-05-09T05:05:07.056Z,83.43
2024-05-09T05:06:10.400Z,83.57
2024-05-09T05:07:02.076Z,83.81
2024-05-09T05:07:50.463Z,83.93
2024-05-09T05:08:38.313Z,84.13
2024-05-09T05:09:27.284Z,84.24
2024-05-09T05:10:21.487Z,83.93
2024-05-09T05:11:14.460Z,84.20
2024-05-09T05:12:05.595Z,84.34
2024-05-09T05:13:12.276Z,84.27
2024-05-09T05:13:59.943Z,84.26
2024-05-09T05:14:47.906Z,84.41
2024-05-09T05:15:35.618Z,84.93
2024-05-09T05:16:23.365Z,84.63
2024-05-09T05:17:11.219Z,84.73
2024-05-09T05:17:59.309Z,84.51
2024-05-09T05:18:50.255Z,84.81
2024-05-09T05:19:47.292Z,84.73
2024-05-09T05:20:37.576Z,84.39
2024-05-09T05:21:29.944Z,84.65
2024-05-09T05:22:21.480Z,85.02
2024-05-09T05:23:19.262Z,85.18
2024-05-09T05:24:08.651Z,84.87
2024-05-09T05:25:00.371Z,85.07
2024-05-09T05:25:50.300Z,85.14
2024-05-09T05:26:46.063Z,85.33
2024-05-09T05:27:36.602Z,85.23
2024-05-09T05:28:33.074Z,85.12
2024-05-09T05:29:27.711Z,84.81
2024-05-09T05:30:25.220Z,84.80
2024-05-09T05:31:22.215Z,84.74
2024-05-09T05:32:11.117Z,84.88
2024-05-09T05:33:03.046Z,85.03
2024-05-09T05:33:58.281Z,85.17
2024-05-09T05:34:51.045Z,85.50
2024-05-09T05:35:41.037Z,85.48
2024-05-09T05:36:33.220Z,85.34
2024-05-09T05:37:29.082Z,85.23
2024-05-09T05:38:20.031Z,85.64
2024-05-09T05:39:14.346Z,85.69
2024-05-09T05:40:14.617Z,85.86
2024-05-09T05:41:13.002Z,85.53
2024-05-09T05:42:08.135Z,85.59
2024-05-09T05:42:59.983Z,85.42
2024-05-09T05:43:52.008Z,85.07
2024-05-09T05:44:42.354Z,84.05
2024-05-09T05:45:33.572Z,83.84
2024-05-09T05:46:28.880Z,83.46
2024-05-09T05:47:19.654Z,83.05
2024-05-09T05:48:12.972Z,82.77
2024-05-09T05:49:05.557Z,81.67
2024-05-09T05:50:05.190Z,80.69
2024-05-09T05:51:04.193Z,80.12
2024-05-09T05:52:05.512Z,80.12
2024-05-09T05:52:56.916Z,78.22
2024-05-09T05:53:49.483Z,77.63
2024-05-09T05:54:45.787Z,76.83
2024-05-09T05:55:38.830Z,75.86
2024-05-09T05:56:32.534Z,75.59
2024-05-09T05:57:23.634Z,74.84
2024-05-09T05:58:17.073Z,73.62
2024-05-09T05:59:14.071Z,73.05
2024-05-09T06:00:17.992Z,73.02
2024-05-09T06:01:14.904Z,73.01
2024-05-09T06:02:16.494Z,72.21
2024-05-09T06:03:19.016Z,72.21
2024-05-09T06:04:09.956Z,71.85
2024-05-09T06:05:00.662Z,71.51
2024-05-09T06:05:52.987Z,71.29
2024-05-09T06:06:50.175Z,71.23
2024-05-09T06:07:40.954Z,71.21
2024-05-09T06:08:35.681Z,70.88
2024-05-09T06:09:30.888Z,70.18
2024-05-09T06:10:52.584Z,69.88
2024-05-09T06:11:47.073Z,69.33
2024-05-09T06:12:38.788Z,69.10
2024-05-09T06:13:47.772Z,69.13
2024-05-09T06:14:40.638Z,68.17
2024-05-09T06:15:44.069Z,68.71
2024-05-09T06:16:44.117Z,68.70
2024-05-09T06:17:40.039Z,69.04
2024-05-09T06:18:39.041Z,68.82
2024-05-09T06:19:38.485Z,68.75
2024-05-09T06:20:35.979Z,68.14
2024-05-09T06:21:37.794Z,67.65
2024-05-09T06:22:34.317Z,67.19
2024-05-09T06:23:23.943Z,66.76
2024-05-09T06:24:17.370Z,66.24
2024-05-09T06:25:09.806Z,65.95
2024-05-09T06:26:09.436Z,64.84
2024-05-09T06:27:13.641Z,64.21
2024-05-09T06:28:07.019Z,64.00
2024-05-09T06:29:07.877Z,64.37
2024-05-09T06:30:02.049Z,64.64
2024-05-09T06:30:55.975Z,63.70
2024-05-09T06:31:57.178Z,63.60
2024-05-09T06:33:01.595Z,63.98
2024-05-09T06:33:59.806Z,64.27
2024-05-09T06:34:51.148Z,64.93
2024-05-09T06:35:50.764Z,65.85
2024-05-09T06:36:47.650Z,65.46
2024-05-09T06:37:37.909Z,65.78
2024-05-09T06:38:34.373Z,65.90
2024-05-09T06:39:27.425Z,66.05
2024-05-09T06:40:25.886Z,66.60
2024-05-09T06:41:33.736Z,67.20
2024-05-09T06:42:33.583Z,67.41
2024-05-09T06:43:23.800Z,67.55
2024-05-09T06:44:17.818Z,66.75
2024-05-09T06:45:15.765Z,67.20
2024-05-09T06:46:13.839Z,67.03
2024-05-09T06:47:08.746Z,67.28
2024-05-09T06:48:02.677Z,67.24
2024-05-09T06:48:51.524Z,67.50
2024-05-09T06:49:43.972Z,67.39
2024-05-09T06:50:43.682Z,67.58
2024-05-09T06:51:44.861Z,67.74
2024-05-09T06:52:37.505Z,67.79
2024-05-09T06:53:27.102Z,68.11
2024-05-09T06:54:28.762Z,68.48
2024-05-09T06:55:35.992Z,68.95
2024-05-09T06:56:34.266Z,69.37
2024-05-09T06:57:43.115Z,68.46
2024-05-09T06:58:45.577Z,68.57
2024-05-09T06:59:43.508Z,68.63
2024-05-09T07:00:45.089Z,68.95
2024-05-09T07:01:49.687Z,69.31
2024-05-09T07:02:52.892Z,69.84
2024-05-09T07:03:59.498Z,70.05
2024-05-09T07:04:59.708Z,69.64
2024-05-09T07:05:53.885Z,69.78
2024-05-09T07:06:55.683Z,69.86
2024-05-09T07:07:52.755Z,70.08
2024-05-09T07:08:44.196Z,70.36
2024-05-09T07:09:42.293Z,70.34
2024-05-09T07:10:41.161Z,70.27
2024-05-09T07:11:35.610Z,70.32
2024-05-09T07:12:31.270Z,70.38
2024-05-09T07:13:27.917Z,70.66
2024-05-09T07:14:19.260Z,70.89
2024-05-09T07:15:08.059Z,71.17
2024-05-09T07:16:04.111Z,71.37
2024-05-09T07:17:02.418Z,70.61
2024-05-09T07:17:55.651Z,70.08
2024-05-09T07:18:54.847Z,70.18
2024-05-09T07:19:45.899Z,69.96
2024-05-09T07:20:37.142Z,70.02
2024-05-09T07:21:30.726Z,70.04
2024-05-09T07:22:23.647Z,70.24
2024-05-09T07:23:19.764Z,70.31
2024-05-09T07:24:13.095Z,70.15
2024-05-09T07:25:04.586Z,70.04
2024-05-09T07:25:57.302Z,69.77
2024-05-09T07:26:46.065Z,69.37
2024-05-09T07:27:34.678Z,69.06
2024-05-09T07:28:22.487Z,68.52
2024-05-09T07:29:10.225Z,68.49
2024-05-09T07:29:59.774Z,68.22
2024-05-09T07:30:48.973Z,67.71
2024-05-09T07:31:36.970Z,68.32
2024-05-09T07:32:26.241Z,68.68
2024-05-09T07:33:22.378Z,69.01
2024-05-09T07:34:13.049Z,68.68
2024-05-09T07:35:01.132Z,68.56
2024-05-09T07:45:57.083Z,65.49
2024-05-09T07:47:48.561Z,65.25
2024-05-09T07:49:44.044Z,65.37
2024-05-09T07:50:53.247Z,64.96
2024-05-09T07:53:07.628Z,64.97
2024-05-09T07:54:06.680Z,64.28
2024-05-09T07:54:57.495Z,64.32
2024-05-09T07:56:23.778Z,64.63
2024-05-09T07:57:15.588Z,63.99
2024-05-09T07:58:03.501Z,64.14
2024-05-09T07:58:54.150Z,64.15
2024-05-09T07:59:45.039Z,63.50
2024-05-09T08:00:33.419Z,63.21
2024-05-09T08:01:27.166Z,62.98
2024-05-09T08:02:18.306Z,62.62
2024-05-09T08:03:10.311Z,63.04
2024-05-09T08:03:58.465Z,62.59
2024-05-09T08:04:49.354Z,62.09
2024-05-09T08:05:40.377Z,62.30
2024-05-09T08:06:28.251Z,62.45
2024-05-09T08:07:15.960Z,62.56
2024-05-09T08:08:03.919Z,62.82
2024-05-09T08:08:51.832Z,62.72
2024-05-09T08:09:39.590Z,61.73
2024-05-09T08:10:29.073Z,61.59
2024-05-09T08:11:19.397Z,61.40
2024-05-09T08:12:09.244Z,61.76
2024-05-09T08:12:59.014Z,61.62
2024-05-09T08:13:47.147Z,61.61
2024-05-09T08:14:34.825Z,61.91
2024-05-09T08:15:22.943Z,62.00
2024-05-09T08:16:10.694Z,61.77
2024-05-09T08:17:02.236Z,61.75
2024-05-09T08:17:50.169Z,61.37
2024-05-09T08:18:38.061Z,61.23
2024-05-09T08:19:28.687Z,60.82
2024-05-09T08:20:26.499Z,60.89
2024-05-09T08:21:20.468Z,61.13
2024-05-09T08:22:10.562Z,61.19
2024-05-09T08:22:58.325Z,61.51
2024-05-09T08:23:46.357Z,61.90
2024-05-09T08:24:35.496Z,62.04
2024-05-09T08:25:23.163Z,61.91
2024-05-09T08:26:10.875Z,61.73
2024-05-09T08:26:58.430Z,61.67
2024-05-09T08:27:49.374Z,61.27
2024-05-09T08:28:37.164Z,59.79
2024-05-09T08:29:24.924Z,60.18
2024-05-09T08:30:21.351Z,60.65
2024-05-09T08:31:15.699Z,59.65
2024-05-09T08:32:05.631Z,59.70
2024-05-09T08:32:53.609Z,59.78
2024-05-09T08:33:47.964Z,59.80
2024-05-09T08:34:40.602Z,59.65
2024-05-09T08:35:28.304Z,59.02
2024-05-09T08:36:15.977Z,59.26
2024-05-09T08:37:12.855Z,59.57
2024-05-09T08:38:05.711Z,59.23
2024-05-09T08:38:53.774Z,59.01
2024-05-09T08:39:41.411Z,58.31
2024-05-09T08:40:34.584Z,57.79
2024-05-09T08:41:29.966Z,58.41
2024-05-09T08:42:21.132Z,58.44
2024-05-09T08:43:11.531Z,58.59
2024-05-09T08:44:01.243Z,58.62
2024-05-09T08:44:49.685Z,58.51
2024-05-09T08:45:45.747Z,58.43
2024-05-09T08:46:35.960Z,58.66
2024-05-09T08:47:24.238Z,58.72
2024-05-09T08:48:13.532Z,58.56
2024-05-09T08:49:03.416Z,58.47
2024-05-09T08:50:00.401Z,58.53
2024-05-09T08:50:52.109Z,58.54
2024-05-09T08:51:42.039Z,58.37
2024-05-09T08:52:32.008Z,57.98
2024-05-09T08:53:19.880Z,57.70
2024-05-09T08:54:07.887Z,57.20
2024-05-09T08:54:55.789Z,56.94
2024-05-09T08:55:45.587Z,56.98
2024-05-09T08:56:35.183Z,57.16
2024-05-09T08:57:23.227Z,57.48
2024-05-09T08:58:16.203Z,57.22
2024-05-09T08:59:08.301Z,56.93
2024-05-09T09:00:06.446Z,56.50
2024-05-09T09:00:58.082Z,56.16
2024-05-09T09:01:47.261Z,56.63
2024-05-09T09:02:38.780Z,56.62
2024-05-09T09:03:33.048Z,56.64
2024-05-09T09:04:30.586Z,55.42
2024-05-09T09:05:21.354Z,54.70
2024-05-09T09:06:14.253Z,53.91
2024-05-09T09:07:08.991Z,53.95
2024-05-09T09:07:56.731Z,54.47
2024-05-09T09:08:44.963Z,54.82
2024-05-09T09:09:34.220Z,55.05
2024-05-09T09:10:29.696Z,55.64
2024-05-09T09:11:22.884Z,55.50
2024-05-09T09:12:15.414Z,55.90
2024-05-09T09:13:04.988Z,56.12
2024-05-09T09:13:53.085Z,55.79
2024-05-09T09:14:42.749Z,56.14
2024-05-09T09:15:30.336Z,56.22
2024-05-09T09:16:18.113Z,55.05
2024-05-09T09:17:16.105Z,54.58
2024-05-09T09:18:04.026Z,55.27
2024-05-09T09:18:57.372Z,55.01
2024-05-09T09:19:45.424Z,54.67
2024-05-09T09:20:36.549Z,54.81
2024-05-09T09:21:24.961Z,55.29
2024-05-09T09:22:12.846Z,54.88
2024-05-09T09:23:00.555Z,54.85
2024-05-09T09:23:50.139Z,54.89
2024-05-09T09:24:37.854Z,55.28
2024-05-09T09:25:25.498Z,55.32
2024-05-09T09:26:16.876Z,55.49
2024-05-09T09:27:05.146Z,55.10
2024-05-09T09:27:55.632Z,55.03
2024-05-09T09:28:45.189Z,54.87
2024-05-09T09:29:33.831Z,54.61
2024-05-09T09:30:34.424Z,54.55
2024-05-09T09:31:25.311Z,53.87
2024-05-09T09:32:13.242Z,53.31
2024-05-09T09:33:03.851Z,54.02
2024-05-09T09:33:52.207Z,54.61
2024-05-09T09:34:41.251Z,54.46
2024-05-09T09:35:28.976Z,54.02
2024-05-09T09:36:18.177Z,54.32
2024-05-09T09:37:07.939Z,54.41
2024-05-09T09:38:01.508Z,53.75
2024-05-09T09:38:51.744Z,53.14
2024-05-09T09:39:41.867Z,53.68
2024-05-09T09:40:36.212Z,53.77
2024-05-09T09:41:30.359Z,53.55
2024-05-09T09:42:23.091Z,53.93
2024-05-09T09:43:14.853Z,54.15
2024-05-09T09:44:04.096Z,54.33
2024-05-09T09:45:01.877Z,54.48
2024-05-09T09:45:55.765Z,54.28
2024-05-09T09:46:45.213Z,53.83
2024-05-09T09:47:34.920Z,53.82
2024-05-09T09:48:23.509Z,54.07
2024-05-09T09:49:16.640Z,53.33
2024-05-09T09:50:14.232Z,53.65
2024-05-09T09:51:06.200Z,54.10
2024-05-09T09:51:54.558Z,54.19
2024-05-09T09:52:42.826Z,54.27
2024-05-09T09:53:31.610Z,54.14
2024-05-09T09:54:21.994Z,54.23
2024-05-09T09:55:10.977Z,53.67
2024-05-09T09:56:00.278Z,53.43
2024-05-09T09:56:48.893Z,53.43
2024-05-09T09:57:39.475Z,53.75
2024-05-09T09:58:32.593Z,53.48
2024-05-09T09:59:21.739Z,53.17
2024-05-09T10:00:11.964Z,52.77
2024-05-09T10:01:05.071Z,52.86
2024-05-09T10:01:55.236Z,52.97
2024-05-09T10:02:43.294Z,52.44
2024-05-09T10:03:31.700Z,52.23
2024-05-09T10:04:20.015Z,52.28
2024-05-09T10:05:08.799Z,51.39
2024-05-09T10:05:57.811Z,51.55
2024-05-09T10:07:01.643Z,52.15
2024-05-09T10:07:51.652Z,51.55
2024-05-09T10:08:39.446Z,51.69
2024-05-09T10:09:27.955Z,52.11
2024-05-09T10:10:31.903Z,52.00
2024-05-09T10:11:22.153Z,51.83
2024-05-09T10:12:13.948Z,51.83
2024-05-09T10:13:07.040Z,51.62
2024-05-09T10:13:57.161Z,51.26
2024-05-09T10:14:49.067Z,51.09
2024-05-09T10:15:47.567Z,50.85
2024-05-09T10:16:44.966Z,50.68
2024-05-09T10:17:32.964Z,51.02
2024-05-09T10:18:29.531Z,51.35
2024-05-09T10:19:26.193Z,50.77
2024-05-09T10:20:22.218Z,50.27
2024-05-09T10:21:19.884Z,50.03
2024-05-09T10:22:09.722Z,49.67
2024-05-09T10:22:57.363Z,50.30
2024-05-09T10:23:58.279Z,50.60
2024-05-09T10:24:53.067Z,50.71
2024-05-09T10:25:40.903Z,50.15
2024-05-09T10:26:36.289Z,49.82
2024-05-09T10:27:42.361Z,50.19
2024-05-09T10:28:38.583Z,50.54
2024-05-09T10:29:26.394Z,51.06
2024-05-09T10:30:29.707Z,51.49
2024-05-09T10:31:23.376Z,51.55
2024-05-09T10:32:24.324Z,51.44
2024-05-09T10:33:12.193Z,51.43
2024-05-09T10:34:07.474Z,51.24
2024-05-09T10:35:04.887Z,51.19
2024-05-09T10:35:54.695Z,51.93
2024-05-09T10:36:43.632Z,51.87
2024-05-09T10:37:38.838Z,52.05
2024-05-09T10:38:26.535Z,52.48
2024-05-09T10:39:21.095Z,52.55
2024-05-09T10:40:23.491Z,52.52
2024-05-09T10:41:18.625Z,52.55
2024-05-09T10:42:10.801Z,52.81
2024-05-09T10:43:02.598Z,50.56
2024-05-09T10:43:54.529Z,51.01
2024-05-09T10:44:42.348Z,51.98
2024-05-09T10:45:31.793Z,52.54
2024-05-09T10:46:24.976Z,52.37
2024-05-09T10:47:12.904Z,51.67
2024-05-09T10:48:02.443Z,52.23
2024-05-09T10:49:02.428Z,53.14
2024-05-09T10:49:52.107Z,52.80
2024-05-09T10:50:43.491Z,53.27
2024-05-09T10:51:34.955Z,53.23
2024-05-09T10:52:23.498Z,53.73
2024-05-09T10:53:18.958Z,53.82
2024-05-09T10:54:12.281Z,53.67
2024-05-09T10:55:14.390Z,53.58
2024-05-09T10:56:04.055Z,53.84
2024-05-09T10:56:59.729Z,53.70
2024-05-09T10:57:52.111Z,53.66
2024-05-09T10:58:40.053Z,50.76
2024-05-09T10:59:37.291Z,51.95
2024-05-09T11:01:24.948Z,53.29
2024-05-09T11:02:13.768Z,54.17
2024-05-09T11:03:01.533Z,54.10
2024-05-09T11:03:52.514Z,53.70
2024-05-09T11:04:41.156Z,53.98
2024-05-09T11:05:29.105Z,54.03
2024-05-09T11:06:17.901Z,53.68
2024-05-09T11:07:15.399Z,53.60
2024-05-09T11:08:17.715Z,53.53
2024-05-09T11:09:05.973Z,53.46
2024-05-09T11:09:57.181Z,52.68
2024-05-09T11:10:59.371Z,52.89
2024-05-09T11:11:50.983Z,53.14
2024-05-09T11:12:38.692Z,53.43
2024-05-09T11:13:37.421Z,53.72
2024-05-09T11:14:27.684Z,53.15
2024-05-09T11:15:16.492Z,52.76
2024-05-09T11:16:06.240Z,52.61
2024-05-09T11:17:06.142Z,52.43
2024-05-09T11:17:54.241Z,52.05
2024-05-09T11:18:43.498Z,52.88
2024-05-09T11:19:41.571Z,52.85
2024-05-09T11:20:39.147Z,52.47
2024-05-09T11:21:28.343Z,53.10
2024-05-09T11:22:15.999Z,53.24
2024-05-09T11:23:09.642Z,52.76
2024-05-09T11:24:01.335Z,52.19
2024-05-09T11:24:49.262Z,52.05
2024-05-09T11:25:37.160Z,52.39
2024-05-09T11:26:27.271Z,52.22
2024-05-09T11:27:29.917Z,52.63
2024-05-09T11:28:18.657Z,52.83
2024-05-09T11:29:09.403Z,53.08
2024-05-09T11:30:26.985Z,53.38
2024-05-09T11:31:20.414Z,53.02